sensor_id;sensor_type;location;lat;lon;timestamp;P1;durP1;ratioP1;P2;durP2;ratioP2
26484;SDS011;18083;50.560;7.262;2022-09-03T00:02:03;9.18;;;3.72;;
26484;SDS011;18083;50.560;7.262;2022-09-03T00:07:01;5.80;;;3.75;;
26484;SDS011;18083;50.560;7.262;2022-09-03T00:09:53;5.40;;;4.00;;
26484;SDS011;18083;50.560;7.262;2022-09-03T00:12:00;4.22;;;3.83;;
26484;SDS011;18083;50.560;7.262;2022-09-03T00:17:13;8.63;;;3.98;;
26484;SDS011;18083;50.560;7.262;2022-09-03T00:22:08;6.62;;;2.55;;
26484;SDS011;18083;50.560;7.262;2022-09-03T00:24:37;4.45;;;2.62;;
26484;SDS011;18083;50.560;7.262;2022-09-03T00:27:10;3.98;;;2.98;;
26484;SDS011;18083;50.560;7.262;2022-09-03T00:29:34;3.12;;;2.83;;
26484;SDS011;18083;50.560;7.262;2022-09-03T00:34:39;2.77;;;2.40;;
26484;SDS011;18083;50.560;7.262;2022-09-03T00:37:08;3.55;;;2.62;;
26484;SDS011;18083;50.560;7.262;2022-09-03T00:39:36;2.72;;;2.42;;
26484;SDS011;18083;50.560;7.262;2022-09-03T00:52:41;2.42;;;2.15;;
26484;SDS011;18083;50.560;7.262;2022-09-03T00:55:18;3.08;;;2.20;;
26484;SDS011;18083;50.560;7.262;2022-09-03T00:57:50;5.12;;;3.10;;
26484;SDS011;18083;50.560;7.262;2022-09-03T01:00:14;4.67;;;3.27;;
26484;SDS011;18083;50.560;7.262;2022-09-03T01:10:35;9.55;;;6.10;;
26484;SDS011;18083;50.560;7.262;2022-09-03T01:13:06;10.40;;;6.65;;
26484;SDS011;18083;50.560;7.262;2022-09-03T01:15:35;10.05;;;6.33;;
26484;SDS011;18083;50.560;7.262;2022-09-03T01:18:15;12.88;;;7.25;;
26484;SDS011;18083;50.560;7.262;2022-09-03T01:31:23;7.83;;;5.08;;
26484;SDS011;18083;50.560;7.262;2022-09-03T01:33:51;5.60;;;4.05;;
26484;SDS011;18083;50.560;7.262;2022-09-03T01:38:49;6.12;;;3.83;;
26484;SDS011;18083;50.560;7.262;2022-09-03T01:41:27;4.67;;;4.08;;
26484;SDS011;18083;50.560;7.262;2022-09-03T01:46:42;10.05;;;3.50;;
26484;SDS011;18083;50.560;7.262;2022-09-03T01:51:57;4.78;;;3.95;;
26484;SDS011;18083;50.560;7.262;2022-09-03T01:54:34;3.47;;;3.08;;
26484;SDS011;18083;50.560;7.262;2022-09-03T01:59:42;6.78;;;3.72;;
26484;SDS011;18083;50.560;7.262;2022-09-03T02:02:17;3.55;;;2.92;;
26484;SDS011;18083;50.560;7.262;2022-09-03T02:07:39;6.85;;;4.80;;
26484;SDS011;18083;50.560;7.262;2022-09-03T02:10:04;8.53;;;5.03;;
26484;SDS011;18083;50.560;7.262;2022-09-03T02:12:32;7.10;;;4.37;;
26484;SDS011;18083;50.560;7.262;2022-09-03T02:15:03;5.00;;;3.58;;
26484;SDS011;18083;50.560;7.262;2022-09-03T02:17:30;6.55;;;3.45;;
26484;SDS011;18083;50.560;7.262;2022-09-03T02:19:59;6.90;;;3.50;;
26484;SDS011;18083;50.560;7.262;2022-09-03T02:22:27;6.42;;;3.62;;
26484;SDS011;18083;50.560;7.262;2022-09-03T02:24:54;4.80;;;4.30;;
26484;SDS011;18083;50.560;7.262;2022-09-03T02:27:21;4.58;;;3.42;;
26484;SDS011;18083;50.560;7.262;2022-09-03T02:29:49;5.42;;;3.40;;
26484;SDS011;18083;50.560;7.262;2022-09-03T02:32:16;3.95;;;3.37;;
26484;SDS011;18083;50.560;7.262;2022-09-03T02:34:44;3.77;;;3.15;;
26484;SDS011;18083;50.560;7.262;2022-09-03T02:37:17;6.10;;;3.30;;
26484;SDS011;18083;50.560;7.262;2022-09-03T02:39:40;5.47;;;2.47;;
26484;SDS011;18083;50.560;7.262;2022-09-03T02:42:07;3.67;;;2.60;;
26484;SDS011;18083;50.560;7.262;2022-09-03T02:44:37;4.60;;;2.85;;
26484;SDS011;18083;50.560;7.262;2022-09-03T02:47:05;4.03;;;2.55;;
26484;SDS011;18083;50.560;7.262;2022-09-03T02:49:33;3.95;;;3.02;;
26484;SDS011;18083;50.560;7.262;2022-09-03T02:52:05;4.85;;;3.00;;
26484;SDS011;18083;50.560;7.262;2022-09-03T02:54:35;3.55;;;2.62;;
26484;SDS011;18083;50.560;7.262;2022-09-03T02:57:05;3.62;;;3.33;;
26484;SDS011;18083;50.560;7.262;2022-09-03T02:59:33;5.70;;;3.05;;
26484;SDS011;18083;50.560;7.262;2022-09-03T03:02:01;2.92;;;2.62;;
26484;SDS011;18083;50.560;7.262;2022-09-03T03:04:29;5.28;;;2.70;;
26484;SDS011;18083;50.560;7.262;2022-09-03T03:06:56;5.80;;;2.77;;
26484;SDS011;18083;50.560;7.262;2022-09-03T03:09:24;4.92;;;2.10;;
26484;SDS011;18083;50.560;7.262;2022-09-03T03:11:51;2.62;;;2.05;;
26484;SDS011;18083;50.560;7.262;2022-09-03T03:14:20;3.55;;;2.42;;
26484;SDS011;18083;50.560;7.262;2022-09-03T03:16:48;2.90;;;2.47;;
26484;SDS011;18083;50.560;7.262;2022-09-03T03:19:16;2.58;;;2.20;;
26484;SDS011;18083;50.560;7.262;2022-09-03T03:21:43;3.90;;;2.33;;
26484;SDS011;18083;50.560;7.262;2022-09-03T03:24:11;6.78;;;2.47;;
26484;SDS011;18083;50.560;7.262;2022-09-03T03:26:38;2.77;;;2.52;;
26484;SDS011;18083;50.560;7.262;2022-09-03T03:29:06;4.58;;;2.45;;
26484;SDS011;18083;50.560;7.262;2022-09-03T03:31:33;3.72;;;3.05;;
26484;SDS011;18083;50.560;7.262;2022-09-03T03:34:01;3.15;;;2.30;;
26484;SDS011;18083;50.560;7.262;2022-09-03T03:36:30;6.40;;;2.27;;
26484;SDS011;18083;50.560;7.262;2022-09-03T03:38:58;2.62;;;2.08;;
26484;SDS011;18083;50.560;7.262;2022-09-03T03:41:27;8.53;;;2.27;;
26484;SDS011;18083;50.560;7.262;2022-09-03T03:43:57;3.10;;;1.85;;
26484;SDS011;18083;50.560;7.262;2022-09-03T03:46:27;3.80;;;2.08;;
26484;SDS011;18083;50.560;7.262;2022-09-03T03:48:54;4.03;;;2.00;;
26484;SDS011;18083;50.560;7.262;2022-09-03T03:51:21;4.03;;;1.82;;
26484;SDS011;18083;50.560;7.262;2022-09-03T03:53:49;4.00;;;3.12;;
26484;SDS011;18083;50.560;7.262;2022-09-03T03:56:17;2.27;;;2.08;;
26484;SDS011;18083;50.560;7.262;2022-09-03T03:58:45;3.55;;;1.60;;
26484;SDS011;18083;50.560;7.262;2022-09-03T04:01:14;3.72;;;2.45;;
26484;SDS011;18083;50.560;7.262;2022-09-03T04:03:42;3.25;;;2.55;;
26484;SDS011;18083;50.560;7.262;2022-09-03T04:06:11;3.83;;;1.70;;
26484;SDS011;18083;50.560;7.262;2022-09-03T04:08:39;3.35;;;2.08;;
26484;SDS011;18083;50.560;7.262;2022-09-03T04:11:07;4.25;;;1.70;;
26484;SDS011;18083;50.560;7.262;2022-09-03T04:13:36;2.27;;;2.00;;
26484;SDS011;18083;50.560;7.262;2022-09-03T04:16:04;2.62;;;1.95;;
26484;SDS011;18083;50.560;7.262;2022-09-03T04:18:33;2.22;;;1.82;;
26484;SDS011;18083;50.560;7.262;2022-09-03T04:21:09;3.37;;;2.12;;
26484;SDS011;18083;50.560;7.262;2022-09-03T04:23:33;2.58;;;2.25;;
26484;SDS011;18083;50.560;7.262;2022-09-03T04:26:00;2.08;;;1.87;;
26484;SDS011;18083;50.560;7.262;2022-09-03T04:28:27;4.10;;;2.50;;
26484;SDS011;18083;50.560;7.262;2022-09-03T04:30:59;6.28;;;2.72;;
26484;SDS011;18083;50.560;7.262;2022-09-03T04:33:24;7.65;;;2.20;;
26484;SDS011;18083;50.560;7.262;2022-09-03T04:35:51;4.47;;;2.52;;
26484;SDS011;18083;50.560;7.262;2022-09-03T04:38:18;3.08;;;2.17;;
26484;SDS011;18083;50.560;7.262;2022-09-03T04:40:50;2.08;;;1.87;;
26484;SDS011;18083;50.560;7.262;2022-09-03T04:43:15;3.98;;;2.67;;
26484;SDS011;18083;50.560;7.262;2022-09-03T04:45:42;2.77;;;1.75;;
26484;SDS011;18083;50.560;7.262;2022-09-03T04:48:09;2.47;;;1.90;;
26484;SDS011;18083;50.560;7.262;2022-09-03T04:50:37;8.23;;;2.12;;
26484;SDS011;18083;50.560;7.262;2022-09-03T04:53:04;1.80;;;1.50;;
26484;SDS011;18083;50.560;7.262;2022-09-03T04:55:35;5.05;;;1.77;;
26484;SDS011;18083;50.560;7.262;2022-09-03T04:58:03;5.87;;;2.47;;
26484;SDS011;18083;50.560;7.262;2022-09-03T05:00:34;3.90;;;2.20;;
26484;SDS011;18083;50.560;7.262;2022-09-03T05:03:01;2.40;;;2.05;;
26484;SDS011;18083;50.560;7.262;2022-09-03T05:05:30;4.55;;;2.25;;
26484;SDS011;18083;50.560;7.262;2022-09-03T05:07:59;1.90;;;1.80;;
26484;SDS011;18083;50.560;7.262;2022-09-03T05:10:29;1.75;;;1.50;;
26484;SDS011;18083;50.560;7.262;2022-09-03T05:13:02;3.77;;;2.08;;
26484;SDS011;18083;50.560;7.262;2022-09-03T05:15:26;2.12;;;1.92;;
26484;SDS011;18083;50.560;7.262;2022-09-03T05:17:57;3.08;;;2.02;;
26484;SDS011;18083;50.560;7.262;2022-09-03T05:20:25;3.87;;;1.72;;
26484;SDS011;18083;50.560;7.262;2022-09-03T05:22:54;2.77;;;1.77;;
26484;SDS011;18083;50.560;7.262;2022-09-03T05:25:22;3.75;;;2.60;;
26484;SDS011;18083;50.560;7.262;2022-09-03T05:27:50;4.33;;;2.22;;
26484;SDS011;18083;50.560;7.262;2022-09-03T05:30:19;5.47;;;2.00;;
26484;SDS011;18083;50.560;7.262;2022-09-03T05:32:48;3.70;;;2.33;;
26484;SDS011;18083;50.560;7.262;2022-09-03T05:35:16;2.08;;;1.75;;
26484;SDS011;18083;50.560;7.262;2022-09-03T05:37:43;5.30;;;1.70;;
26484;SDS011;18083;50.560;7.262;2022-09-03T05:40:11;2.62;;;1.65;;
26484;SDS011;18083;50.560;7.262;2022-09-03T05:42:38;3.87;;;1.57;;
26484;SDS011;18083;50.560;7.262;2022-09-03T05:45:06;3.65;;;2.08;;
26484;SDS011;18083;50.560;7.262;2022-09-03T05:47:38;5.00;;;3.10;;
26484;SDS011;18083;50.560;7.262;2022-09-03T05:50:06;1.85;;;1.75;;
26484;SDS011;18083;50.560;7.262;2022-09-03T05:52:36;2.75;;;1.32;;
26484;SDS011;18083;50.560;7.262;2022-09-03T05:55:03;3.40;;;2.10;;
26484;SDS011;18083;50.560;7.262;2022-09-03T05:57:31;2.02;;;1.42;;
26484;SDS011;18083;50.560;7.262;2022-09-03T05:59:58;5.03;;;2.27;;
26484;SDS011;18083;50.560;7.262;2022-09-03T06:02:25;3.20;;;1.87;;
26484;SDS011;18083;50.560;7.262;2022-09-03T06:04:53;1.50;;;1.40;;
26484;SDS011;18083;50.560;7.262;2022-09-03T06:07:22;8.05;;;1.90;;
26484;SDS011;18083;50.560;7.262;2022-09-03T06:09:50;4.40;;;1.60;;
26484;SDS011;18083;50.560;7.262;2022-09-03T06:12:18;2.10;;;1.72;;
26484;SDS011;18083;50.560;7.262;2022-09-03T06:14:45;1.95;;;1.22;;
26484;SDS011;18083;50.560;7.262;2022-09-03T06:17:12;4.45;;;1.80;;
26484;SDS011;18083;50.560;7.262;2022-09-03T06:19:40;2.58;;;1.60;;
26484;SDS011;18083;50.560;7.262;2022-09-03T06:22:08;1.87;;;1.72;;
26484;SDS011;18083;50.560;7.262;2022-09-03T06:24:35;1.25;;;1.25;;
26484;SDS011;18083;50.560;7.262;2022-09-03T06:27:03;2.62;;;1.30;;
26484;SDS011;18083;50.560;7.262;2022-09-03T06:29:30;1.82;;;1.45;;
26484;SDS011;18083;50.560;7.262;2022-09-03T06:31:57;3.67;;;1.67;;
26484;SDS011;18083;50.560;7.262;2022-09-03T06:34:26;4.03;;;1.52;;
26484;SDS011;18083;50.560;7.262;2022-09-03T06:36:54;4.47;;;1.85;;
26484;SDS011;18083;50.560;7.262;2022-09-03T06:39:21;3.02;;;1.77;;
26484;SDS011;18083;50.560;7.262;2022-09-03T06:41:49;2.52;;;2.25;;
26484;SDS011;18083;50.560;7.262;2022-09-03T06:44:20;2.08;;;1.67;;
26484;SDS011;18083;50.560;7.262;2022-09-03T06:46:47;3.67;;;1.50;;
26484;SDS011;18083;50.560;7.262;2022-09-03T06:49:16;1.60;;;1.50;;
26484;SDS011;18083;50.560;7.262;2022-09-03T06:51:45;3.33;;;1.50;;
26484;SDS011;18083;50.560;7.262;2022-09-03T06:54:13;1.40;;;1.30;;
26484;SDS011;18083;50.560;7.262;2022-09-03T06:56:41;1.75;;;1.60;;
26484;SDS011;18083;50.560;7.262;2022-09-03T06:59:10;1.47;;;1.37;;
26484;SDS011;18083;50.560;7.262;2022-09-03T07:01:37;4.35;;;1.70;;
26484;SDS011;18083;50.560;7.262;2022-09-03T07:04:06;4.35;;;2.00;;
26484;SDS011;18083;50.560;7.262;2022-09-03T07:06:38;4.30;;;1.30;;
26484;SDS011;18083;50.560;7.262;2022-09-03T07:09:07;2.37;;;1.42;;
26484;SDS011;18083;50.560;7.262;2022-09-03T07:11:35;3.10;;;1.77;;
26484;SDS011;18083;50.560;7.262;2022-09-03T07:14:03;1.95;;;1.72;;
26484;SDS011;18083;50.560;7.262;2022-09-03T07:16:34;4.30;;;1.75;;
26484;SDS011;18083;50.560;7.262;2022-09-03T07:19:03;2.05;;;1.72;;
26484;SDS011;18083;50.560;7.262;2022-09-03T07:21:31;3.90;;;1.82;;
26484;SDS011;18083;50.560;7.262;2022-09-03T07:24:02;5.97;;;1.95;;
26484;SDS011;18083;50.560;7.262;2022-09-03T07:26:31;4.03;;;1.87;;
26484;SDS011;18083;50.560;7.262;2022-09-03T07:28:59;2.75;;;2.05;;
26484;SDS011;18083;50.560;7.262;2022-09-03T07:31:30;2.08;;;1.90;;
26484;SDS011;18083;50.560;7.262;2022-09-03T07:34:03;3.22;;;2.37;;
26484;SDS011;18083;50.560;7.262;2022-09-03T07:36:29;3.52;;;2.55;;
26484;SDS011;18083;50.560;7.262;2022-09-03T07:38:57;2.45;;;2.25;;
26484;SDS011;18083;50.560;7.262;2022-09-03T07:41:25;2.58;;;2.37;;
26484;SDS011;18083;50.560;7.262;2022-09-03T07:43:53;2.47;;;2.10;;
26484;SDS011;18083;50.560;7.262;2022-09-03T07:46:21;2.75;;;2.00;;
26484;SDS011;18083;50.560;7.262;2022-09-03T07:48:49;3.00;;;1.98;;
26484;SDS011;18083;50.560;7.262;2022-09-03T07:51:18;6.25;;;2.20;;
26484;SDS011;18083;50.560;7.262;2022-09-03T07:53:46;4.97;;;2.33;;
26484;SDS011;18083;50.560;7.262;2022-09-03T07:56:13;2.52;;;2.33;;
26484;SDS011;18083;50.560;7.262;2022-09-03T07:58:41;3.90;;;1.95;;
26484;SDS011;18083;50.560;7.262;2022-09-03T08:01:14;1.75;;;1.65;;
26484;SDS011;18083;50.560;7.262;2022-09-03T08:03:38;2.20;;;2.05;;
26484;SDS011;18083;50.560;7.262;2022-09-03T08:06:06;3.90;;;2.30;;
26484;SDS011;18083;50.560;7.262;2022-09-03T08:08:34;4.45;;;1.98;;
26484;SDS011;18083;50.560;7.262;2022-09-03T08:11:03;1.80;;;1.47;;
26484;SDS011;18083;50.560;7.262;2022-09-03T08:13:32;4.10;;;1.95;;
26484;SDS011;18083;50.560;7.262;2022-09-03T08:15:59;4.35;;;1.75;;
26484;SDS011;18083;50.560;7.262;2022-09-03T08:18:27;1.70;;;1.60;;
26484;SDS011;18083;50.560;7.262;2022-09-03T08:20:58;2.75;;;2.27;;
26484;SDS011;18083;50.560;7.262;2022-09-03T08:23:24;2.75;;;1.90;;
26484;SDS011;18083;50.560;7.262;2022-09-03T08:25:59;3.40;;;2.15;;
26484;SDS011;18083;50.560;7.262;2022-09-03T08:28:26;4.03;;;1.90;;
26484;SDS011;18083;50.560;7.262;2022-09-03T08:30:54;1.75;;;1.65;;
26484;SDS011;18083;50.560;7.262;2022-09-03T08:33:21;5.10;;;2.27;;
26484;SDS011;18083;50.560;7.262;2022-09-03T08:35:53;2.55;;;2.05;;
26484;SDS011;18083;50.560;7.262;2022-09-03T08:38:20;3.60;;;1.62;;
26484;SDS011;18083;50.560;7.262;2022-09-03T08:40:49;2.00;;;1.77;;
26484;SDS011;18083;50.560;7.262;2022-09-03T08:43:17;2.40;;;1.50;;
26484;SDS011;18083;50.560;7.262;2022-09-03T08:45:45;1.92;;;1.50;;
26484;SDS011;18083;50.560;7.262;2022-09-03T08:48:13;1.47;;;1.25;;
26484;SDS011;18083;50.560;7.262;2022-09-03T08:50:42;2.87;;;1.32;;
26484;SDS011;18083;50.560;7.262;2022-09-03T08:53:55;1.90;;;1.70;;
26484;SDS011;18083;50.560;7.262;2022-09-03T08:58:14;8.30;;;1.95;;
26484;SDS011;18083;50.560;7.262;2022-09-03T09:16:39;3.05;;;1.75;;
26484;SDS011;18083;50.560;7.262;2022-09-03T09:21:52;2.15;;;1.62;;
26484;SDS011;18083;50.560;7.262;2022-09-03T09:24:22;2.70;;;1.95;;
26484;SDS011;18083;50.560;7.262;2022-09-03T09:26:59;3.40;;;1.65;;
26484;SDS011;18083;50.560;7.262;2022-09-03T09:29:23;2.17;;;1.42;;
26484;SDS011;18083;50.560;7.262;2022-09-03T09:31:51;2.02;;;1.82;;
26484;SDS011;18083;50.560;7.262;2022-09-03T09:34:19;2.95;;;2.15;;
26484;SDS011;18083;50.560;7.262;2022-09-03T09:36:50;1.95;;;1.85;;
26484;SDS011;18083;50.560;7.262;2022-09-03T09:39:18;1.98;;;1.87;;
26484;SDS011;18083;50.560;7.262;2022-09-03T09:41:56;2.58;;;1.57;;
26484;SDS011;18083;50.560;7.262;2022-09-03T09:44:24;2.60;;;1.65;;
26484;SDS011;18083;50.560;7.262;2022-09-03T09:47:00;5.72;;;2.00;;
26484;SDS011;18083;50.560;7.262;2022-09-03T09:49:24;3.15;;;1.80;;
26484;SDS011;18083;50.560;7.262;2022-09-03T09:51:58;1.70;;;1.60;;
26484;SDS011;18083;50.560;7.262;2022-09-03T09:54:23;5.97;;;1.87;;
26484;SDS011;18083;50.560;7.262;2022-09-03T09:56:57;5.00;;;1.92;;
26484;SDS011;18083;50.560;7.262;2022-09-03T09:59:16;2.10;;;1.90;;
26484;SDS011;18083;50.560;7.262;2022-09-03T10:01:45;3.02;;;2.10;;
26484;SDS011;18083;50.560;7.262;2022-09-03T10:04:22;2.17;;;1.87;;
26484;SDS011;18083;50.560;7.262;2022-09-03T10:06:53;2.75;;;1.95;;
26484;SDS011;18083;50.560;7.262;2022-09-03T10:09:27;2.47;;;1.85;;
26484;SDS011;18083;50.560;7.262;2022-09-03T10:14:39;2.33;;;2.12;;
26484;SDS011;18083;50.560;7.262;2022-09-03T10:22:48;2.42;;;1.70;;
26484;SDS011;18083;50.560;7.262;2022-09-03T10:25:15;1.72;;;1.62;;
26484;SDS011;18083;50.560;7.262;2022-09-03T10:27:43;3.22;;;2.08;;
26484;SDS011;18083;50.560;7.262;2022-09-03T10:30:11;3.98;;;2.00;;
26484;SDS011;18083;50.560;7.262;2022-09-03T10:37:53;3.85;;;2.20;;
26484;SDS011;18083;50.560;7.262;2022-09-03T10:45:41;2.75;;;2.25;;
26484;SDS011;18083;50.560;7.262;2022-09-03T10:50:43;2.47;;;2.20;;
26484;SDS011;18083;50.560;7.262;2022-09-03T10:55:55;3.35;;;2.37;;
26484;SDS011;18083;50.560;7.262;2022-09-03T11:01:33;3.77;;;2.02;;
26484;SDS011;18083;50.560;7.262;2022-09-03T11:03:35;4.10;;;2.90;;
26484;SDS011;18083;50.560;7.262;2022-09-03T11:06:07;2.83;;;2.52;;
26484;SDS011;18083;50.560;7.262;2022-09-03T11:08:36;4.75;;;2.67;;
26484;SDS011;18083;50.560;7.262;2022-09-03T11:11:09;4.85;;;2.35;;
26484;SDS011;18083;50.560;7.262;2022-09-03T11:13:40;2.45;;;2.25;;
26484;SDS011;18083;50.560;7.262;2022-09-03T11:16:10;3.90;;;2.90;;
26484;SDS011;18083;50.560;7.262;2022-09-03T11:18:40;4.12;;;2.62;;
26484;SDS011;18083;50.560;7.262;2022-09-03T11:21:09;2.95;;;2.27;;
26484;SDS011;18083;50.560;7.262;2022-09-03T11:23:39;3.35;;;2.52;;
26484;SDS011;18083;50.560;7.262;2022-09-03T11:26:07;4.17;;;2.67;;
26484;SDS011;18083;50.560;7.262;2022-09-03T11:28:57;2.72;;;2.52;;
26484;SDS011;18083;50.560;7.262;2022-09-03T11:31:44;2.72;;;2.27;;
26484;SDS011;18083;50.560;7.262;2022-09-03T11:34:13;2.42;;;2.22;;
26484;SDS011;18083;50.560;7.262;2022-09-03T11:36:41;3.33;;;2.40;;
26484;SDS011;18083;50.560;7.262;2022-09-03T11:39:22;2.60;;;2.25;;
26484;SDS011;18083;50.560;7.262;2022-09-03T11:41:59;5.25;;;2.70;;
26484;SDS011;18083;50.560;7.262;2022-09-03T11:44:19;2.95;;;2.65;;
26484;SDS011;18083;50.560;7.262;2022-09-03T11:46:56;3.17;;;2.37;;
26484;SDS011;18083;50.560;7.262;2022-09-03T11:49:27;7.15;;;2.92;;
26484;SDS011;18083;50.560;7.262;2022-09-03T11:52:00;4.33;;;2.60;;
26484;SDS011;18083;50.560;7.262;2022-09-03T11:54:24;3.58;;;2.15;;
26484;SDS011;18083;50.560;7.262;2022-09-03T11:59:37;3.05;;;2.47;;
26484;SDS011;18083;50.560;7.262;2022-09-03T12:04:38;5.75;;;2.70;;
26484;SDS011;18083;50.560;7.262;2022-09-03T12:07:20;5.33;;;2.72;;
26484;SDS011;18083;50.560;7.262;2022-09-03T12:17:33;5.30;;;2.77;;
26484;SDS011;18083;50.560;7.262;2022-09-03T12:19:56;3.60;;;2.30;;
26484;SDS011;18083;50.560;7.262;2022-09-03T12:22:26;4.50;;;2.72;;
26484;SDS011;18083;50.560;7.262;2022-09-03T12:24:55;4.42;;;2.17;;
26484;SDS011;18083;50.560;7.262;2022-09-03T12:27:24;2.30;;;1.62;;
26484;SDS011;18083;50.560;7.262;2022-09-03T12:29:53;4.78;;;2.15;;
26484;SDS011;18083;50.560;7.262;2022-09-03T12:32:23;3.83;;;1.95;;
26484;SDS011;18083;50.560;7.262;2022-09-03T12:34:51;1.57;;;1.47;;
26484;SDS011;18083;50.560;7.262;2022-09-03T12:37:20;3.12;;;2.27;;
26484;SDS011;18083;50.560;7.262;2022-09-03T12:39:50;7.60;;;2.27;;
26484;SDS011;18083;50.560;7.262;2022-09-03T12:42:23;4.70;;;2.75;;
26484;SDS011;18083;50.560;7.262;2022-09-03T12:44:46;4.60;;;2.42;;
26484;SDS011;18083;50.560;7.262;2022-09-03T12:47:15;2.98;;;1.95;;
26484;SDS011;18083;50.560;7.262;2022-09-03T12:49:44;8.73;;;2.25;;
26484;SDS011;18083;50.560;7.262;2022-09-03T12:52:28;2.92;;;2.08;;
26484;SDS011;18083;50.560;7.262;2022-09-03T12:55:00;2.35;;;2.05;;
26484;SDS011;18083;50.560;7.262;2022-09-03T12:57:37;3.08;;;1.90;;
26484;SDS011;18083;50.560;7.262;2022-09-03T13:00:06;2.60;;;2.25;;
26484;SDS011;18083;50.560;7.262;2022-09-03T13:05:20;3.70;;;1.85;;
26484;SDS011;18083;50.560;7.262;2022-09-03T13:07:51;5.05;;;1.72;;
26484;SDS011;18083;50.560;7.262;2022-09-03T13:10:27;2.50;;;2.30;;
26484;SDS011;18083;50.560;7.262;2022-09-03T13:12:58;5.40;;;2.25;;
26484;SDS011;18083;50.560;7.262;2022-09-03T13:15:27;3.12;;;2.20;;
26484;SDS011;18083;50.560;7.262;2022-09-03T13:25:40;1.67;;;1.52;;
26484;SDS011;18083;50.560;7.262;2022-09-03T13:36:06;3.30;;;2.52;;
26484;SDS011;18083;50.560;7.262;2022-09-03T13:41:14;3.02;;;2.10;;
26484;SDS011;18083;50.560;7.262;2022-09-03T13:49:30;3.45;;;2.00;;
26484;SDS011;18083;50.560;7.262;2022-09-03T13:52:22;1.92;;;1.72;;
26484;SDS011;18083;50.560;7.262;2022-09-03T13:54:52;2.15;;;1.72;;
26484;SDS011;18083;50.560;7.262;2022-09-03T13:57:26;2.77;;;1.32;;
26484;SDS011;18083;50.560;7.262;2022-09-03T13:59:57;1.82;;;1.72;;
26484;SDS011;18083;50.560;7.262;2022-09-03T14:07:43;3.52;;;1.90;;
26484;SDS011;18083;50.560;7.262;2022-09-03T14:10:30;1.40;;;1.40;;
26484;SDS011;18083;50.560;7.262;2022-09-03T14:15:32;4.12;;;1.60;;
26484;SDS011;18083;50.560;7.262;2022-09-03T14:18:08;4.35;;;1.90;;
26484;SDS011;18083;50.560;7.262;2022-09-03T14:20:32;2.52;;;1.55;;
26484;SDS011;18083;50.560;7.262;2022-09-03T14:25:28;3.60;;;1.55;;
26484;SDS011;18083;50.560;7.262;2022-09-03T14:28:11;1.50;;;1.40;;
26484;SDS011;18083;50.560;7.262;2022-09-03T14:30:29;2.70;;;2.33;;
26484;SDS011;18083;50.560;7.262;2022-09-03T14:33:00;1.80;;;1.70;;
26484;SDS011;18083;50.560;7.262;2022-09-03T14:35:30;3.25;;;1.47;;
26484;SDS011;18083;50.560;7.262;2022-09-03T14:40:49;3.83;;;1.70;;
26484;SDS011;18083;50.560;7.262;2022-09-03T14:59:19;3.30;;;1.55;;
26484;SDS011;18083;50.560;7.262;2022-09-03T15:01:47;1.75;;;1.65;;
26484;SDS011;18083;50.560;7.262;2022-09-03T15:04:21;2.12;;;1.98;;
26484;SDS011;18083;50.560;7.262;2022-09-03T15:09:21;2.22;;;1.80;;
26484;SDS011;18083;50.560;7.262;2022-09-03T15:11:56;3.10;;;1.65;;
26484;SDS011;18083;50.560;7.262;2022-09-03T15:17:25;4.33;;;1.92;;
26484;SDS011;18083;50.560;7.262;2022-09-03T15:22:36;6.97;;;1.17;;
26484;SDS011;18083;50.560;7.262;2022-09-03T15:27:51;2.12;;;0.88;;
26484;SDS011;18083;50.560;7.262;2022-09-03T15:30:17;4.47;;;1.02;;
26484;SDS011;18083;50.560;7.262;2022-09-03T15:38:03;5.03;;;1.87;;
26484;SDS011;18083;50.560;7.262;2022-09-03T15:40:40;7.40;;;2.40;;
26484;SDS011;18083;50.560;7.262;2022-09-03T15:43:20;6.55;;;2.20;;
26484;SDS011;18083;50.560;7.262;2022-09-03T15:45:56;6.87;;;2.25;;
26484;SDS011;18083;50.560;7.262;2022-09-03T15:48:31;2.67;;;1.70;;
26484;SDS011;18083;50.560;7.262;2022-09-03T15:51:03;8.48;;;3.05;;
26484;SDS011;18083;50.560;7.262;2022-09-03T15:56:01;3.85;;;1.72;;
26484;SDS011;18083;50.560;7.262;2022-09-03T16:00:58;5.45;;;1.98;;
26484;SDS011;18083;50.560;7.262;2022-09-03T16:03:33;2.98;;;1.30;;
26484;SDS011;18083;50.560;7.262;2022-09-03T16:06:04;3.77;;;1.65;;
26484;SDS011;18083;50.560;7.262;2022-09-03T16:08:37;3.80;;;1.65;;
26484;SDS011;18083;50.560;7.262;2022-09-03T16:19:08;3.80;;;1.87;;
26484;SDS011;18083;50.560;7.262;2022-09-03T16:27:14;4.65;;;1.57;;
26484;SDS011;18083;50.560;7.262;2022-09-03T16:29:38;3.90;;;1.40;;
26484;SDS011;18083;50.560;7.262;2022-09-03T16:32:10;2.20;;;1.52;;
26484;SDS011;18083;50.560;7.262;2022-09-03T16:37:14;5.45;;;1.95;;
26484;SDS011;18083;50.560;7.262;2022-09-03T16:39:48;4.85;;;2.10;;
26484;SDS011;18083;50.560;7.262;2022-09-03T16:42:27;3.75;;;1.65;;
26484;SDS011;18083;50.560;7.262;2022-09-03T16:45:00;2.10;;;1.90;;
26484;SDS011;18083;50.560;7.262;2022-09-03T16:47:39;6.30;;;2.22;;
26484;SDS011;18083;50.560;7.262;2022-09-03T16:50:17;9.30;;;2.37;;
26484;SDS011;18083;50.560;7.262;2022-09-03T16:52:48;5.78;;;1.75;;
26484;SDS011;18083;50.560;7.262;2022-09-03T16:55:27;5.78;;;1.75;;
26484;SDS011;18083;50.560;7.262;2022-09-03T16:58:08;2.70;;;1.67;;
26484;SDS011;18083;50.560;7.262;2022-09-03T17:08:15;2.83;;;1.85;;
26484;SDS011;18083;50.560;7.262;2022-09-03T17:24:01;2.02;;;1.90;;
26484;SDS011;18083;50.560;7.262;2022-09-03T17:26:36;3.42;;;2.35;;
26484;SDS011;18083;50.560;7.262;2022-09-03T17:36:35;4.97;;;2.60;;
26484;SDS011;18083;50.560;7.262;2022-09-03T17:39:05;3.65;;;2.77;;
26484;SDS011;18083;50.560;7.262;2022-09-03T17:41:38;6.00;;;3.15;;
26484;SDS011;18083;50.560;7.262;2022-09-03T17:49:19;5.70;;;3.75;;
26484;SDS011;18083;50.560;7.262;2022-09-03T17:52:02;5.78;;;3.77;;
26484;SDS011;18083;50.560;7.262;2022-09-03T17:54:46;4.42;;;3.50;;
26484;SDS011;18083;50.560;7.262;2022-09-03T17:57:26;7.55;;;5.03;;
26484;SDS011;18083;50.560;7.262;2022-09-03T18:00:00;8.78;;;4.85;;
26484;SDS011;18083;50.560;7.262;2022-09-03T18:05:07;8.18;;;4.95;;
26484;SDS011;18083;50.560;7.262;2022-09-03T18:07:41;5.87;;;4.25;;
26484;SDS011;18083;50.560;7.262;2022-09-03T18:10:27;6.35;;;4.30;;
26484;SDS011;18083;50.560;7.262;2022-09-03T18:12:45;4.67;;;3.77;;
26484;SDS011;18083;50.560;7.262;2022-09-03T18:15:17;3.62;;;3.33;;
26484;SDS011;18083;50.560;7.262;2022-09-03T18:20:16;4.40;;;3.45;;
26484;SDS011;18083;50.560;7.262;2022-09-03T18:23:05;5.10;;;3.72;;
26484;SDS011;18083;50.560;7.262;2022-09-03T18:25:55;3.90;;;3.60;;
26484;SDS011;18083;50.560;7.262;2022-09-03T18:31:27;5.08;;;3.98;;
26484;SDS011;18083;50.560;7.262;2022-09-03T18:34:12;4.30;;;3.80;;
26484;SDS011;18083;50.560;7.262;2022-09-03T18:36:57;6.60;;;4.70;;
26484;SDS011;18083;50.560;7.262;2022-09-03T18:39:43;5.90;;;5.33;;
26484;SDS011;18083;50.560;7.262;2022-09-03T18:48:15;7.25;;;5.62;;
26484;SDS011;18083;50.560;7.262;2022-09-03T18:51:13;4.42;;;3.98;;
26484;SDS011;18083;50.560;7.262;2022-09-03T18:56:47;6.22;;;4.65;;
26484;SDS011;18083;50.560;7.262;2022-09-03T19:02:32;5.83;;;4.50;;
26484;SDS011;18083;50.560;7.262;2022-09-03T19:05:22;4.97;;;4.12;;
26484;SDS011;18083;50.560;7.262;2022-09-03T19:13:41;6.10;;;5.50;;
26484;SDS011;18083;50.560;7.262;2022-09-03T19:16:42;6.80;;;6.10;;
26484;SDS011;18083;50.560;7.262;2022-09-03T19:19:38;6.33;;;5.60;;
26484;SDS011;18083;50.560;7.262;2022-09-03T19:22:42;6.30;;;5.70;;
26484;SDS011;18083;50.560;7.262;2022-09-03T19:25:09;6.40;;;4.58;;
26484;SDS011;18083;50.560;7.262;2022-09-03T19:28:13;5.03;;;4.53;;
26484;SDS011;18083;50.560;7.262;2022-09-03T19:30:48;6.65;;;4.05;;
26484;SDS011;18083;50.560;7.262;2022-09-03T19:39:22;5.50;;;4.45;;
26484;SDS011;18083;50.560;7.262;2022-09-03T19:42:09;5.60;;;4.67;;